Time;durP1;ratioP1;P1;durP2;ratioP2;P2;SDS_P1;SDS_P2;PMS_P1;PMS_P2;Temp;Humidity;BMP_temperature;BMP_pressure;BME280_temperature;BME280_humidity;BME280_pressure;Samples;Min_cycle;Max_cycle;Signal;HPM_P1;HPM_P2
2022/02/14 00:02:24;;;;;;;9.50;2.83;;;;;;;;;;4983441;28;20023;-62
2022/02/14 00:04:52;;;;;;;16.02;3.50;;;;;;;;;;4983480;28;20691;-63
2022/02/14 00:07:22;;;;;;;6.85;2.63;;;;;;;;;;4975761;28;20060;-61
2022/02/14 00:09:52;;;;;;;12.68;3.42;;;;;;;;;;4969755;28;20251;-61
2022/02/14 00:12:18;;;;;;;11.30;2.90;;;;;;;;;;5007056;28;20033;-62
2022/02/14 00:14:43;;;;;;;4.40;2.80;;;;;;;;;;4996574;28;20053;-61
2022/02/14 00:17:11;;;;;;;11.95;3.50;;;;;;;;;;5008023;28;20061;-59
2022/02/14 00:19:37;;;;;;;4.90;3.15;;;;;;;;;;5011658;28;20033;-61
2022/02/14 00:22:07;;;;;;;11.95;3.40;;;;;;;;;;5007270;28;21262;-61
2022/02/14 00:24:35;;;;;;;6.57;2.85;;;;;;;;;;4997501;28;20044;-61
2022/02/14 00:27:01;;;;;;;10.43;2.67;;;;;;;;;;4985647;28;20052;-61
2022/02/14 00:29:27;;;;;;;7.28;2.92;;;;;;;;;;5011478;28;20633;-62
2022/02/14 00:31:54;;;;;;;5.55;2.30;;;;;;;;;;4972392;28;20026;-61
2022/02/14 00:34:22;;;;;;;9.38;2.90;;;;;;;;;;5006033;28;20049;-61
2022/02/14 00:36:48;;;;;;;13.60;3.10;;;;;;;;;;5005104;28;20590;-61
2022/02/14 00:39:13;;;;;;;12.20;2.80;;;;;;;;;;5011256;28;20029;-62
2022/02/14 00:41:41;;;;;;;7.63;2.78;;;;;;;;;;5010292;28;20030;-62
2022/02/14 00:44:08;;;;;;;7.65;2.72;;;;;;;;;;5010407;28;20044;-61
2022/02/14 00:46:34;;;;;;;7.32;2.70;;;;;;;;;;4985061;28;21031;-61
2022/02/14 00:48:59;;;;;;;3.80;2.42;;;;;;;;;;4984967;28;20022;-61
2022/02/14 00:51:29;;;;;;;9.85;3.30;;;;;;;;;;4987158;28;20412;-61
2022/02/14 00:53:58;;;;;;;6.32;2.92;;;;;;;;;;5012509;28;20025;-61
2022/02/14 00:56:26;;;;;;;10.50;3.08;;;;;;;;;;4988145;28;20251;-61
2022/02/14 00:58:53;;;;;;;8.68;2.63;;;;;;;;;;5012913;28;20032;-60
2022/02/14 01:01:24;;;;;;;8.25;3.17;;;;;;;;;;4993053;28;20079;-60
2022/02/14 01:03:50;;;;;;;12.82;3.35;;;;;;;;;;5003558;28;20044;-63
2022/02/14 01:06:15;;;;;;;7.18;3.60;;;;;;;;;;5005637;28;20050;-61
2022/02/14 01:08:43;;;;;;;7.47;2.65;;;;;;;;;;5011400;28;21972;-61
2022/02/14 01:11:09;;;;;;;7.70;3.17;;;;;;;;;;4970645;28;20038;-61
2022/02/14 01:13:39;;;;;;;6.75;2.67;;;;;;;;;;4980236;28;20124;-61
2022/02/14 01:16:05;;;;;;;7.57;3.20;;;;;;;;;;5005339;28;20067;-61
2022/02/14 01:18:30;;;;;;;5.13;2.60;;;;;;;;;;4992199;28;20112;-61
2022/02/14 01:20:57;;;;;;;8.60;3.30;;;;;;;;;;5011640;28;20025;-61
2022/02/14 01:23:25;;;;;;;6.30;2.67;;;;;;;;;;4992740;28;20989;-61
2022/02/14 01:25:56;;;;;;;5.70;2.05;;;;;;;;;;5011325;28;20099;-61
2022/02/14 01:28:23;;;;;;;7.55;2.70;;;;;;;;;;5002167;28;20037;-60
2022/02/14 01:30:49;;;;;;;7.53;2.63;;;;;;;;;;4985060;28;20409;-61
2022/02/14 01:33:17;;;;;;;6.43;2.58;;;;;;;;;;4988549;28;20041;-61
2022/02/14 01:35:46;;;;;;;14.07;2.65;;;;;;;;;;4983678;28;20025;-62
2022/02/14 01:38:13;;;;;;;6.18;2.65;;;;;;;;;;5004731;28;20138;-61
2022/02/14 01:40:40;;;;;;;4.88;2.08;;;;;;;;;;5009077;28;20086;-60
2022/02/14 01:43:05;;;;;;;8.13;3.28;;;;;;;;;;4976628;28;20036;-61
2022/02/14 01:45:33;;;;;;;6.45;2.30;;;;;;;;;;5010203;28;20025;-62
2022/02/14 01:48:00;;;;;;;7.43;2.60;;;;;;;;;;5010462;28;20029;-61
2022/02/14 01:50:28;;;;;;;11.57;2.55;;;;;;;;;;5005581;28;20447;-60
2022/02/14 01:53:01;;;;;;;11.02;2.50;;;;;;;;;;5009227;28;20029;-60
2022/02/14 01:55:26;;;;;;;5.95;2.40;;;;;;;;;;4984984;28;20595;-61
2022/02/14 01:57:52;;;;;;;3.80;2.30;;;;;;;;;;4986232;28;20138;-61
2022/02/14 02:00:19;;;;;;;8.35;3.08;;;;;;;;;;4981428;28;21056;-61
2022/02/14 02:02:49;;;;;;;8.45;2.60;;;;;;;;;;4993480;28;20504;-61
2022/02/14 02:05:20;;;;;;;10.20;2.60;;;;;;;;;;4978826;28;20146;-60
2022/02/14 02:07:48;;;;;;;6.60;2.58;;;;;;;;;;4984274;28;20068;-61
2022/02/14 02:10:14;;;;;;;7.07;2.97;;;;;;;;;;5009598;28;20149;-61
2022/02/14 02:12:49;;;;;;;7.20;3.00;;;;;;;;;;4984779;28;20071;-61
2022/02/14 02:15:20;;;;;;;5.00;2.35;;;;;;;;;;5003577;28;20038;-60
2022/02/14 02:17:48;;;;;;;8.93;2.97;;;;;;;;;;5006252;28;20083;-62
2022/02/14 02:20:16;;;;;;;5.15;2.20;;;;;;;;;;5003844;28;20022;-61
2022/02/14 02:22:43;;;;;;;7.45;2.72;;;;;;;;;;4991366;28;20029;-61
2022/02/14 02:25:12;;;;;;;9.68;2.53;;;;;;;;;;5004459;28;20040;-60
2022/02/14 02:27:42;;;;;;;4.05;2.10;;;;;;;;;;5010620;28;20041;-61
2022/02/14 02:30:11;;;;;;;4.70;2.78;;;;;;;;;;5006764;28;22027;-62
2022/02/14 02:32:36;;;;;;;7.93;2.38;;;;;;;;;;4986683;28;20029;-60
2022/02/14 02:35:02;;;;;;;11.70;3.13;;;;;;;;;;5008527;28;20033;-62
2022/02/14 02:37:28;;;;;;;6.68;2.92;;;;;;;;;;4993129;28;20030;-61
2022/02/14 02:39:54;;;;;;;10.85;2.53;;;;;;;;;;5005014;28;20107;-62
2022/02/14 02:42:20;;;;;;;6.55;2.58;;;;;;;;;;5008741;28;20075;-60
2022/02/14 02:44:49;;;;;;;8.48;2.58;;;;;;;;;;4993567;28;20033;-58
2022/02/14 02:47:15;;;;;;;7.75;2.70;;;;;;;;;;5004815;28;20452;-58
2022/02/14 02:49:42;;;;;;;5.90;2.72;;;;;;;;;;5008389;28;20140;-60
2022/02/14 02:52:15;;;;;;;11.27;2.72;;;;;;;;;;4990592;28;20063;-61
2022/02/14 02:54:42;;;;;;;10.35;3.28;;;;;;;;;;4991311;28;20038;-62
2022/02/14 02:57:08;;;;;;;5.53;2.20;;;;;;;;;;5005160;28;20036;-61
2022/02/14 02:59:38;;;;;;;3.10;1.98;;;;;;;;;;5003393;28;20758;-61
2022/02/14 03:02:05;;;;;;;3.75;2.10;;;;;;;;;;4987019;28;20048;-61
2022/02/14 03:04:33;;;;;;;10.30;3.72;;;;;;;;;;5003983;28;20037;-61
2022/02/14 03:07:01;;;;;;;7.78;2.58;;;;;;;;;;5002467;28;20110;-60
2022/02/14 03:09:26;;;;;;;4.00;2.33;;;;;;;;;;5004818;28;20029;-61
2022/02/14 03:11:53;;;;;;;7.93;2.20;;;;;;;;;;5003226;28;20048;-62
2022/02/14 03:14:18;;;;;;;7.85;2.63;;;;;;;;;;5006602;28;20072;-61
2022/02/14 03:16:46;;;;;;;3.72;2.17;;;;;;;;;;4971669;28;20579;-61
2022/02/14 03:19:12;;;;;;;6.95;2.55;;;;;;;;;;5005887;28;20029;-61
2022/02/14 03:21:38;;;;;;;4.78;1.90;;;;;;;;;;5005558;28;20030;-61
2022/02/14 03:24:08;;;;;;;7.10;2.90;;;;;;;;;;4988228;28;20159;-60
2022/02/14 03:26:34;;;;;;;10.38;2.20;;;;;;;;;;4991945;28;20085;-62
2022/02/14 03:28:59;;;;;;;9.70;2.72;;;;;;;;;;4988249;28;20068;-60
2022/02/14 03:31:27;;;;;;;10.68;2.55;;;;;;;;;;5006901;28;20037;-61
2022/02/14 03:33:55;;;;;;;5.82;2.50;;;;;;;;;;4981139;28;21631;-61
2022/02/14 03:36:23;;;;;;;4.82;2.33;;;;;;;;;;4981458;28;20037;-61
2022/02/14 03:38:52;;;;;;;4.57;2.25;;;;;;;;;;5005379;28;20038;-61
2022/02/14 03:41:17;;;;;;;5.57;2.13;;;;;;;;;;5008166;28;20411;-60
2022/02/14 03:43:45;;;;;;;3.22;2.30;;;;;;;;;;4993080;28;20029;-61
2022/02/14 03:46:13;;;;;;;6.72;2.15;;;;;;;;;;5010461;28;20037;-60
2022/02/14 03:48:38;;;;;;;7.07;2.38;;;;;;;;;;4979747;28;20041;-62
2022/02/14 03:51:06;;;;;;;6.97;2.58;;;;;;;;;;4992616;28;20492;-62
2022/02/14 03:53:32;;;;;;;6.03;2.25;;;;;;;;;;5001268;28;20096;-61
2022/02/14 03:55:57;;;;;;;6.75;2.40;;;;;;;;;;4984475;28;20077;-61
2022/02/14 03:58:27;;;;;;;3.78;2.40;;;;;;;;;;5006467;28;20033;-61
2022/02/14 04:00:55;;;;;;;12.48;2.00;;;;;;;;;;5009630;28;20029;-60
2022/02/14 04:03:23;;;;;;;3.88;1.95;;;;;;;;;;4992281;28;20629;-60
2022/02/14 04:05:49;;;;;;;11.77;2.40;;;;;;;;;;4981591;28;20058;-60
2022/02/14 04:08:19;;;;;;;3.80;2.25;;;;;;;;;;4966561;28;20045;-60
2022/02/14 04:10:45;;;;;;;7.22;2.67;;;;;;;;;;4950009;28;20705;-61
2022/02/14 04:13:11;;;;;;;7.32;2.05;;;;;;;;;;4990378;28;21992;-62
2022/02/14 04:15:36;;;;;;;4.75;2.15;;;;;;;;;;4971202;28;20049;-61
2022/02/14 04:18:06;;;;;;;10.10;2.42;;;;;;;;;;4963140;28;20528;-62
2022/02/14 04:20:39;;;;;;;9.88;1.90;;;;;;;;;;4973120;28;20041;-61
2022/02/14 04:23:10;;;;;;;7.43;2.20;;;;;;;;;;4972958;28;20052;-61
2022/02/14 04:25:38;;;;;;;7.00;2.05;;;;;;;;;;4980809;28;20072;-61
2022/02/14 04:28:09;;;;;;;5.43;2.13;;;;;;;;;;4990418;28;20025;-62
2022/02/14 04:30:35;;;;;;;4.43;2.30;;;;;;;;;;4956012;28;20103;-61
2022/02/14 04:33:00;;;;;;;7.97;2.60;;;;;;;;;;4990286;28;20073;-60
2022/02/14 04:35:27;;;;;;;2.90;1.90;;;;;;;;;;4974939;28;20034;-61
2022/02/14 04:37:54;;;;;;;4.07;1.85;;;;;;;;;;4973070;28;20967;-60
2022/02/14 04:40:22;;;;;;;5.75;1.83;;;;;;;;;;4965919;28;20034;-61
2022/02/14 04:42:48;;;;;;;6.53;1.98;;;;;;;;;;4988932;28;20947;-61
2022/02/14 04:45:18;;;;;;;9.10;3.05;;;;;;;;;;4963146;28;20040;-61
2022/02/14 04:47:43;;;;;;;5.03;1.50;;;;;;;;;;4956123;28;20052;-61
2022/02/14 04:50:11;;;;;;;7.50;2.15;;;;;;;;;;4986862;28;20128;-62
2022/02/14 04:52:42;;;;;;;3.28;1.88;;;;;;;;;;4970843;28;20038;-60
2022/02/14 04:55:10;;;;;;;2.67;2.08;;;;;;;;;;4989216;28;20076;-62
2022/02/14 04:57:38;;;;;;;7.70;1.67;;;;;;;;;;4970395;28;20034;-61
2022/02/14 05:00:09;;;;;;;5.53;2.10;;;;;;;;;;4979431;28;20581;-61
2022/02/14 05:02:35;;;;;;;3.83;1.65;;;;;;;;;;4964681;28;20040;-61
2022/02/14 05:05:03;;;;;;;7.05;2.17;;;;;;;;;;4972002;28;20038;-61
2022/02/14 05:07:31;;;;;;;6.22;1.73;;;;;;;;;;4990017;28;21613;-60
2022/02/14 05:09:56;;;;;;;12.85;1.98;;;;;;;;;;4963656;28;20061;-60
2022/02/14 05:12:26;;;;;;;4.18;1.60;;;;;;;;;;4971450;28;20041;-61
2022/02/14 05:14:52;;;;;;;5.57;2.03;;;;;;;;;;4970796;28;20100;-59
2022/02/14 05:17:18;;;;;;;3.70;1.95;;;;;;;;;;4980097;28;20888;-61
2022/02/14 05:19:46;;;;;;;8.50;2.17;;;;;;;;;;4986419;28;20026;-59
2022/02/14 05:22:12;;;;;;;6.20;2.28;;;;;;;;;;4988378;28;20044;-61
2022/02/14 05:24:39;;;;;;;8.25;1.55;;;;;;;;;;4971706;28;20025;-60
2022/02/14 05:27:10;;;;;;;6.65;1.75;;;;;;;;;;4978827;28;20095;-61
2022/02/14 05:29:36;;;;;;;10.15;2.13;;;;;;;;;;4988053;28;20996;-61
2022/02/14 05:32:04;;;;;;;4.47;1.60;;;;;;;;;;4986562;28;20045;-61
2022/02/14 05:34:32;;;;;;;4.43;1.58;;;;;;;;;;4966108;28;20346;-61
2022/02/14 05:37:00;;;;;;;8.02;3.00;;;;;;;;;;4991345;28;20029;-60
2022/02/14 05:39:25;;;;;;;7.15;1.95;;;;;;;;;;4954060;28;20029;-62
2022/02/14 05:41:50;;;;;;;4.53;2.35;;;;;;;;;;4935867;28;20706;-60
2022/02/14 05:44:16;;;;;;;7.07;2.00;;;;;;;;;;4989082;28;20029;-60
2022/02/14 05:46:44;;;;;;;4.72;1.77;;;;;;;;;;4983932;28;20033;-60
2022/02/14 05:49:09;;;;;;;3.40;1.48;;;;;;;;;;4956859;28;20516;-61
2022/02/14 05:51:35;;;;;;;6.35;2.42;;;;;;;;;;4971703;28;20037;-61
2022/02/14 05:54:00;;;;;;;5.28;1.77;;;;;;;;;;4979392;28;20030;-59
2022/02/14 05:56:26;;;;;;;30.25;2.40;;;;;;;;;;4953860;28;20026;-61
2022/02/14 05:58:51;;;;;;;4.45;1.50;;;;;;;;;;4961930;28;20049;-61
2022/02/14 06:01:24;;;;;;;7.88;1.73;;;;;;;;;;4967282;28;20033;-61
2022/02/14 06:03:49;;;;;;;4.03;1.80;;;;;;;;;;4972296;28;20038;-61
2022/02/14 06:06:17;;;;;;;7.35;1.70;;;;;;;;;;4986573;28;20123;-61
2022/02/14 06:12:32;;;;;;;5.00;1.60;;;;;;;;;;4987258;28;20060;-59
2022/02/14 06:15:00;;;;;;;3.08;1.63;;;;;;;;;;4978929;28;21515;-61
2022/02/14 06:17:25;;;;;;;4.97;2.03;;;;;;;;;;4979355;28;20052;-62
2022/02/14 06:19:50;;;;;;;7.72;1.40;;;;;;;;;;4974065;28;20030;-61
2022/02/14 06:22:16;;;;;;;7.38;1.95;;;;;;;;;;4963507;28;20461;-61
2022/02/14 06:24:44;;;;;;;7.65;1.92;;;;;;;;;;4989039;28;20719;-62
2022/02/14 06:27:14;;;;;;;2.70;1.85;;;;;;;;;;4965474;28;20034;-63
2022/02/14 06:29:40;;;;;;;4.72;1.90;;;;;;;;;;4987476;28;22036;-61
2022/02/14 06:32:05;;;;;;;11.85;2.05;;;;;;;;;;4963988;28;20038;-61
2022/02/14 06:34:31;;;;;;;7.57;1.90;;;;;;;;;;4988015;28;20941;-62
2022/02/14 06:36:56;;;;;;;2.35;1.25;;;;;;;;;;4963122;28;20496;-62
2022/02/14 06:39:22;;;;;;;3.00;1.40;;;;;;;;;;4954247;28;20051;-60
2022/02/14 06:41:50;;;;;;;4.90;1.67;;;;;;;;;;4972983;28;20973;-61
2022/02/14 06:44:16;;;;;;;3.47;1.50;;;;;;;;;;4978964;28;20043;-61
2022/02/14 06:46:41;;;;;;;4.75;1.70;;;;;;;;;;4954455;28;20033;-60
2022/02/14 06:49:06;;;;;;;4.80;1.40;;;;;;;;;;4972642;28;20168;-61
2022/02/14 06:51:33;;;;;;;4.35;2.50;;;;;;;;;;4988935;28;20037;-61
2022/02/14 06:54:01;;;;;;;8.15;1.77;;;;;;;;;;4957614;28;20038;-61
2022/02/14 06:56:29;;;;;;;2.00;1.50;;;;;;;;;;4989250;28;20136;-61
2022/02/14 06:59:00;;;;;;;6.18;1.40;;;;;;;;;;4974051;28;20038;-61
2022/02/14 07:01:28;;;;;;;4.85;1.90;;;;;;;;;;4989045;28;22052;-60
2022/02/14 07:03:54;;;;;;;5.90;1.98;;;;;;;;;;4989268;28;20099;-62
2022/02/14 07:06:22;;;;;;;5.75;1.92;;;;;;;;;;4969659;28;20061;-64
2022/02/14 07:08:50;;;;;;;2.22;1.50;;;;;;;;;;4933742;28;20728;-63
2022/02/14 07:11:15;;;;;;;3.75;1.67;;;;;;;;;;4986642;28;20038;-63
2022/02/14 07:13:41;;;;;;;2.45;1.30;;;;;;;;;;4988748;28;20065;-62
2022/02/14 07:16:06;;;;;;;5.28;1.73;;;;;;;;;;4990537;28;20022;-63
2022/02/14 07:18:32;;;;;;;2.00;1.20;;;;;;;;;;4976075;28;20765;-62
2022/02/14 07:20:59;;;;;;;5.45;1.40;;;;;;;;;;4984702;28;20038;-61
2022/02/14 07:23:25;;;;;;;2.17;1.48;;;;;;;;;;4975471;28;20068;-63
2022/02/14 07:25:56;;;;;;;1.65;1.27;;;;;;;;;;4995084;28;20033;-61
2022/02/14 07:28:22;;;;;;;8.30;1.20;;;;;;;;;;4979223;28;20040;-60
2022/02/14 07:30:49;;;;;;;2.88;1.35;;;;;;;;;;4991463;28;20489;-61
2022/02/14 07:33:19;;;;;;;8.02;2.20;;;;;;;;;;4994211;28;20038;-62
2022/02/14 07:35:47;;;;;;;5.13;1.30;;;;;;;;;;4937058;28;20121;-62
2022/02/14 07:38:17;;;;;;;5.63;1.70;;;;;;;;;;4992290;28;20041;-62
2022/02/14 07:40:42;;;;;;;4.35;1.65;;;;;;;;;;4970173;28;20719;-62
2022/02/14 07:43:08;;;;;;;5.07;1.42;;;;;;;;;;4993536;28;20037;-62
2022/02/14 07:45:35;;;;;;;4.57;1.40;;;;;;;;;;4967172;28;20084;-62
2022/02/14 07:48:08;;;;;;;4.65;1.40;;;;;;;;;;4984216;28;20033;-61
2022/02/14 07:50:36;;;;;;;6.13;1.83;;;;;;;;;;4967771;28;20076;-59
2022/02/14 07:53:02;;;;;;;4.90;1.55;;;;;;;;;;4962520;28;20858;-61
2022/02/14 07:55:29;;;;;;;3.33;1.67;;;;;;;;;;4976833;28;20109;-61
2022/02/14 07:57:55;;;;;;;5.65;1.40;;;;;;;;;;4978715;28;20075;-60
2022/02/14 08:00:22;;;;;;;3.42;1.58;;;;;;;;;;4967844;28;20376;-62
2022/02/14 08:02:48;;;;;;;5.35;1.77;;;;;;;;;;4962792;28;20112;-60
2022/02/14 08:05:15;;;;;;;8.75;1.63;;;;;;;;;;4993626;28;20045;-61
2022/02/14 08:07:41;;;;;;;3.33;1.58;;;;;;;;;;4979167;28;20093;-60
2022/02/14 08:10:09;;;;;;;2.55;1.35;;;;;;;;;;4980281;28;20030;-61
2022/02/14 08:12:34;;;;;;;2.38;1.42;;;;;;;;;;4986899;28;20070;-60
2022/02/14 08:15:01;;;;;;;3.28;1.45;;;;;;;;;;4980167;28;20037;-62
2022/02/14 08:17:28;;;;;;;6.50;1.90;;;;;;;;;;4978352;28;20107;-62
2022/02/14 08:19:54;;;;;;;6.30;1.55;;;;;;;;;;4995876;28;20029;-61
2022/02/14 08:22:19;;;;;;;4.07;1.90;;;;;;;;;;4964885;28;20026;-61
2022/02/14 08:24:49;;;;;;;7.75;1.80;;;;;;;;;;4971723;28;20033;-62
2022/02/14 08:27:17;;;;;;;7.30;1.58;;;;;;;;;;4968981;28;20034;-61
2022/02/14 08:29:45;;;;;;;4.80;1.52;;;;;;;;;;4974260;28;20062;-61
2022/02/14 08:32:16;;;;;;;3.58;1.50;;;;;;;;;;4993300;28;20034;-61
2022/02/14 08:34:41;;;;;;;2.42;1.42;;;;;;;;;;4966514;28;21360;-62
2022/02/14 08:37:11;;;;;;;3.55;2.10;;;;;;;;;;4967257;28;20042;-60
2022/02/14 08:39:40;;;;;;;7.35;1.75;;;;;;;;;;4974745;28;20145;-62
2022/02/14 08:42:11;;;;;;;3.85;1.35;;;;;;;;;;4974355;28;20030;-61
2022/02/14 08:44:38;;;;;;;4.57;1.70;;;;;;;;;;4992715;28;20030;-61
2022/02/14 08:47:04;;;;;;;2.35;1.65;;;;;;;;;;4992011;28;20042;-62
2022/02/14 08:49:35;;;;;;;4.28;2.05;;;;;;;;;;4966265;28;20092;-62
2022/02/14 08:52:03;;;;;;;2.70;1.65;;;;;;;;;;4992902;28;20037;-61
2022/02/14 08:54:29;;;;;;;6.35;2.00;;;;;;;;;;4976007;28;20030;-64
2022/02/14 08:56:57;;;;;;;4.55;1.73;;;;;;;;;;4993873;28;20068;-63
2022/02/14 08:59:25;;;;;;;6.25;1.90;;;;;;;;;;4991356;28;20041;-60
2022/02/14 09:01:59;;;;;;;5.38;1.90;;;;;;;;;;4993596;28;20021;-62
2022/02/14 09:04:25;;;;;;;3.42;1.70;;;;;;;;;;4982724;28;20166;-61
2022/02/14 09:06:55;;;;;;;5.53;2.10;;;;;;;;;;4979633;28;20399;-61
2022/02/14 09:09:21;;;;;;;8.13;2.08;;;;;;;;;;5009756;28;20731;-61
2022/02/14 09:11:47;;;;;;;5.35;2.17;;;;;;;;;;4993393;28;20036;-60
2022/02/14 09:14:12;;;;;;;3.70;2.25;;;;;;;;;;5009938;28;20111;-61
2022/02/14 09:16:38;;;;;;;4.57;2.45;;;;;;;;;;4999672;28;20035;-60
2022/02/14 09:19:03;;;;;;;4.05;2.10;;;;;;;;;;4999824;28;20599;-59
2022/02/14 09:21:31;;;;;;;3.90;2.53;;;;;;;;;;5010525;28;20025;-62
2022/02/14 09:24:00;;;;;;;5.97;2.35;;;;;;;;;;5009541;28;20038;-61
2022/02/14 09:26:29;;;;;;;7.38;2.72;;;;;;;;;;5010040;28;20049;-60
2022/02/14 09:28:54;;;;;;;8.38;2.30;;;;;;;;;;5010469;28;20173;-60
2022/02/14 09:31:28;;;;;;;6.97;2.50;;;;;;;;;;4999979;28;20025;-59
2022/02/14 09:33:53;;;;;;;3.50;2.45;;;;;;;;;;4993101;28;20041;-60
2022/02/14 09:36:23;;;;;;;4.03;2.53;;;;;;;;;;4983679;28;20042;-60
2022/02/14 09:38:49;;;;;;;5.10;2.53;;;;;;;;;;4976700;28;20046;-60
2022/02/14 09:41:16;;;;;;;4.60;2.50;;;;;;;;;;5007716;28;20029;-60
2022/02/14 09:43:47;;;;;;;3.30;2.45;;;;;;;;;;4982064;28;20483;-59
2022/02/14 09:46:13;;;;;;;2.60;1.80;;;;;;;;;;5007664;28;20889;-59
2022/02/14 09:48:40;;;;;;;2.58;2.10;;;;;;;;;;4998814;28;20024;-59
2022/02/14 09:51:06;;;;;;;7.38;2.20;;;;;;;;;;5007338;28;21088;-59
2022/02/14 09:53:31;;;;;;;6.30;1.83;;;;;;;;;;5008898;28;20036;-59
2022/02/14 09:55:59;;;;;;;7.82;1.95;;;;;;;;;;4999265;28;20626;-59
2022/02/14 09:58:28;;;;;;;5.88;2.40;;;;;;;;;;4993122;28;20041;-59
2022/02/14 10:00:56;;;;;;;2.65;1.98;;;;;;;;;;4982667;28;20413;-59
2022/02/14 10:03:25;;;;;;;5.13;1.80;;;;;;;;;;5008267;28;20447;-59
2022/02/14 10:05:54;;;;;;;4.20;1.80;;;;;;;;;;4982630;28;20050;-60
2022/02/14 10:08:24;;;;;;;6.97;1.98;;;;;;;;;;4960755;28;20041;-60
2022/02/14 10:11:08;;;;;;;6.70;1.95;;;;;;;;;;4988668;28;20037;-61
2022/02/14 10:13:37;;;;;;;6.60;1.50;;;;;;;;;;4987613;28;20041;-60
2022/02/14 10:16:09;;;;;;;3.58;1.63;;;;;;;;;;4961859;28;20121;-62
2022/02/14 10:18:41;;;;;;;5.55;1.75;;;;;;;;;;4988379;28;20083;-61
2022/02/14 10:21:12;;;;;;;5.20;1.48;;;;;;;;;;4972914;28;20037;-59
2022/02/14 10:23:57;;;;;;;5.50;1.88;;;;;;;;;;4962952;28;20048;-60
2022/02/14 10:26:26;;;;;;;5.80;1.67;;;;;;;;;;4989060;28;20088;-61
2022/02/14 10:28:51;;;;;;;1.75;1.10;;;;;;;;;;4986628;28;20136;-61
2022/02/14 10:31:20;;;;;;;8.02;1.35;;;;;;;;;;4972683;28;20030;-61
2022/02/14 10:33:55;;;;;;;6.78;1.38;;;;;;;;;;4988964;28;20040;-61
2022/02/14 10:36:23;;;;;;;4.38;1.00;;;;;;;;;;4988071;28;20036;-60
2022/02/14 10:38:51;;;;;;;5.70;1.25;;;;;;;;;;4947533;28;20434;-61
2022/02/14 10:41:17;;;;;;;9.77;1.70;;;;;;;;;;4964905;28;20489;-61
2022/02/14 10:43:43;;;;;;;6.95;1.10;;;;;;;;;;4960962;28;20038;-61
2022/02/14 10:46:22;;;;;;;3.70;1.10;;;;;;;;;;4971129;28;20026;-60
2022/02/14 10:48:53;;;;;;;4.82;1.20;;;;;;;;;;4965248;28;20111;-62
2022/02/14 10:51:19;;;;;;;1.92;0.93;;;;;;;;;;4970273;28;20440;-62
2022/02/14 10:53:45;;;;;;;2.17;0.70;;;;;;;;;;4970743;28;20031;-60
2022/02/14 10:56:18;;;;;;;4.45;1.02;;;;;;;;;;4978366;28;20034;-60
2022/02/14 10:58:47;;;;;;;1.15;0.70;;;;;;;;;;4987040;28;21495;-61
2022/02/14 11:01:13;;;;;;;2.60;0.80;;;;;;;;;;4972986;28;20038;-61
2022/02/14 11:03:42;;;;;;;6.55;1.25;;;;;;;;;;4973763;28;20492;-61
2022/02/14 11:06:11;;;;;;;3.63;0.85;;;;;;;;;;4988476;28;20081;-60
2022/02/14 11:08:38;;;;;;;5.35;1.17;;;;;;;;;;4978981;28;20033;-60
2022/02/14 11:11:07;;;;;;;2.95;1.15;;;;;;;;;;4978187;28;20121;-60
2022/02/14 11:13:35;;;;;;;3.97;1.42;;;;;;;;;;4987851;28;20619;-61
2022/02/14 11:16:03;;;;;;;4.95;1.23;;;;;;;;;;4986708;28;20033;-60
2022/02/14 11:18:31;;;;;;;4.20;1.50;;;;;;;;;;4988326;28;20465;-62
2022/02/14 11:21:02;;;;;;;4.97;1.40;;;;;;;;;;4987026;28;20405;-60
2022/02/14 11:23:30;;;;;;;7.78;2.00;;;;;;;;;;4971804;28;21025;-61
2022/02/14 11:26:00;;;;;;;6.47;1.40;;;;;;;;;;4987675;28;20030;-62
2022/02/14 11:28:34;;;;;;;10.02;1.98;;;;;;;;;;4986936;28;20037;-61
2022/02/14 11:31:09;;;;;;;9.23;1.60;;;;;;;;;;4977541;28;20165;-61
2022/02/14 11:33:35;;;;;;;3.38;1.48;;;;;;;;;;4966175;28;20168;-61
2022/02/14 11:36:02;;;;;;;2.45;1.52;;;;;;;;;;4987138;28;20116;-60
2022/02/14 11:38:48;;;;;;;4.22;1.30;;;;;;;;;;4986609;28;20030;-61
2022/02/14 11:41:33;;;;;;;4.30;1.58;;;;;;;;;;4986440;28;20759;-61
2022/02/14 11:44:11;;;;;;;3.53;1.30;;;;;;;;;;4985901;28;20039;-61
2022/02/14 11:46:55;;;;;;;4.72;1.40;;;;;;;;;;4986976;28;20113;-61
2022/02/14 11:49:21;;;;;;;2.92;1.48;;;;;;;;;;4987864;28;20072;-63
2022/02/14 11:51:58;;;;;;;6.35;1.67;;;;;;;;;;4970277;28;20119;-61
2022/02/14 11:54:28;;;;;;;4.88;1.65;;;;;;;;;;4987135;28;20253;-62
2022/02/14 11:56:55;;;;;;;4.93;1.27;;;;;;;;;;4970517;28;20088;-63
2022/02/14 11:59:27;;;;;;;13.40;2.28;;;;;;;;;;4987992;28;20124;-59
2022/02/14 12:01:52;;;;;;;4.30;1.70;;;;;;;;;;4970374;28;20030;-62
2022/02/14 12:04:29;;;;;;;4.88;1.77;;;;;;;;;;4973000;28;20022;-60
2022/02/14 12:07:13;;;;;;;4.57;1.67;;;;;;;;;;4988965;28;21329;-62
2022/02/14 12:09:56;;;;;;;5.30;1.55;;;;;;;;;;4981450;28;20447;-61
2022/02/14 12:12:41;;;;;;;3.90;1.58;;;;;;;;;;4973881;28;20041;-59
2022/02/14 12:20:45;;;;;;;5.20;1.30;;;;;;;;;;4990189;28;20056;-62
2022/02/14 12:23:13;;;;;;;7.63;1.70;;;;;;;;;;4990698;28;20038;-63
2022/02/14 12:25:51;;;;;;;13.10;2.10;;;;;;;;;;4971705;28;20115;-62
2022/02/14 12:28:17;;;;;;;6.90;1.23;;;;;;;;;;4990964;28;20119;-62
2022/02/14 12:30:45;;;;;;;5.40;1.30;;;;;;;;;;4990275;28;20037;-61
2022/02/14 12:33:12;;;;;;;4.95;1.83;;;;;;;;;;4965555;28;20699;-63
2022/02/14 12:35:39;;;;;;;2.10;1.52;;;;;;;;;;4972056;28;22055;-60
2022/02/14 12:38:07;;;;;;;5.03;1.33;;;;;;;;;;4970868;28;20285;-63
2022/02/14 12:40:51;;;;;;;8.65;1.50;;;;;;;;;;4987394;28;20036;-63
2022/02/14 12:43:25;;;;;;;4.45;1.48;;;;;;;;;;4987685;28;20080;-63
2022/02/14 12:45:53;;;;;;;7.70;1.10;;;;;;;;;;4972678;28;20035;-62
2022/02/14 12:48:31;;;;;;;3.13;1.20;;;;;;;;;;4975308;28;20022;-61
2022/02/14 12:50:57;;;;;;;8.20;1.58;;;;;;;;;;4988857;28;20128;-62
2022/02/14 12:53:23;;;;;;;4.53;1.55;;;;;;;;;;4988133;28;20033;-62
2022/02/14 12:55:49;;;;;;;5.30;1.23;;;;;;;;;;4971115;28;20563;-62
2022/02/14 12:58:16;;;;;;;8.27;1.30;;;;;;;;;;4953322;28;20022;-61
2022/02/14 13:00:46;;;;;;;3.70;1.20;;;;;;;;;;4987160;28;20096;-62
2022/02/14 13:03:16;;;;;;;6.15;1.10;;;;;;;;;;4971782;28;20557;-61
2022/02/14 13:05:49;;;;;;;6.68;1.27;;;;;;;;;;4988095;28;20054;-62
2022/02/14 13:08:25;;;;;;;9.82;1.35;;;;;;;;;;4963388;28;20060;-63
2022/02/14 13:10:57;;;;;;;6.55;1.17;;;;;;;;;;4979020;28;20080;-60
2022/02/14 13:13:29;;;;;;;2.72;0.95;;;;;;;;;;4972604;28;20204;-61
2022/02/14 13:15:56;;;;;;;5.35;1.00;;;;;;;;;;4958654;28;20069;-62
2022/02/14 13:18:22;;;;;;;6.68;1.25;;;;;;;;;;4953894;28;20052;-62
2022/02/14 13:20:55;;;;;;;6.82;0.93;;;;;;;;;;4970846;28;20088;-61
2022/02/14 13:23:21;;;;;;;7.50;1.70;;;;;;;;;;4963145;28;20030;-61
2022/02/14 13:25:49;;;;;;;8.80;1.17;;;;;;;;;;4987308;28;20053;-61
2022/02/14 13:28:17;;;;;;;7.53;1.15;;;;;;;;;;4972810;28;20362;-60
2022/02/14 13:30:43;;;;;;;3.83;1.00;;;;;;;;;;4985876;28;20489;-60
2022/02/14 13:33:16;;;;;;;5.35;0.90;;;;;;;;;;4968218;28;20025;-62
2022/02/14 13:35:46;;;;;;;;;;;;;;;;;;4988484;28;20034;-61
2022/02/14 13:38:14;;;;;;;4.88;1.00;;;;;;;;;;4989205;28;19913;-60
2022/02/14 13:40:41;;;;;;;7.10;0.90;;;;;;;;;;4988075;28;20060;-61
2022/02/14 13:43:07;;;;;;;11.80;1.13;;;;;;;;;;4987487;28;20541;-60
2022/02/14 13:45:52;;;;;;;3.67;0.77;;;;;;;;;;4988231;28;20141;-61
2022/02/14 13:48:25;;;;;;;4.38;1.10;;;;;;;;;;4934906;28;20168;-59
2022/02/14 13:50:57;;;;;;;5.40;0.70;;;;;;;;;;4987777;28;20038;-62
2022/02/14 13:53:23;;;;;;;0.90;0.45;;;;;;;;;;4987623;28;20056;-62
2022/02/14 13:56:10;;;;;;;1.90;0.50;;;;;;;;;;4970972;28;20166;-60
2022/02/14 13:58:40;;;;;;;3.95;1.00;;;;;;;;;;4989804;28;20034;-63
2022/02/14 14:01:17;;;;;;;1.23;0.50;;;;;;;;;;4987672;28;20025;-60
2022/02/14 14:03:43;;;;;;;3.25;0.50;;;;;;;;;;4944232;28;20045;-62
2022/02/14 14:06:38;;;;;;;1.77;0.60;;;;;;;;;;4962559;28;20046;-61
2022/02/14 14:09:16;;;;;;;3.80;0.47;;;;;;;;;;4980036;28;20050;-61
2022/02/14 14:11:44;;;;;;;2.33;0.70;;;;;;;;;;4988499;28;20076;-57
2022/02/14 14:14:30;;;;;;;1.15;0.80;;;;;;;;;;4986297;28;20113;-62
2022/02/14 14:16:59;;;;;;;9.45;0.82;;;;;;;;;;4979096;28;20050;-61
2022/02/14 14:19:24;;;;;;;6.65;0.73;;;;;;;;;;4983992;28;20034;-63
2022/02/14 14:21:54;;;;;;;2.80;0.63;;;;;;;;;;4968400;28;20026;-62
2022/02/14 14:24:25;;;;;;;1.55;0.60;;;;;;;;;;4976161;28;20160;-62
2022/02/14 14:26:54;;;;;;;4.10;0.73;;;;;;;;;;4985503;28;20037;-60
2022/02/14 14:29:22;;;;;;;3.33;0.98;;;;;;;;;;4983992;28;20021;-61
2022/02/14 14:31:50;;;;;;;0.93;0.35;;;;;;;;;;4961552;28;20057;-60
2022/02/14 14:34:16;;;;;;;2.10;0.75;;;;;;;;;;4961952;28;20057;-61
2022/02/14 14:36:44;;;;;;;3.15;0.80;;;;;;;;;;4987527;28;20496;-63
2022/02/14 14:39:09;;;;;;;5.05;0.60;;;;;;;;;;4967810;28;20025;-62
2022/02/14 14:41:39;;;;;;;2.08;0.75;;;;;;;;;;4985498;28;20080;-61
2022/02/14 14:44:05;;;;;;;3.13;0.75;;;;;;;;;;4960325;28;20049;-62
2022/02/14 14:46:31;;;;;;;2.15;0.55;;;;;;;;;;4959561;28;20041;-61
2022/02/14 14:48:59;;;;;;;6.03;0.70;;;;;;;;;;4953374;28;20037;-61
2022/02/14 14:51:25;;;;;;;4.22;0.60;;;;;;;;;;4975708;28;20042;-61
2022/02/14 14:53:52;;;;;;;2.03;0.75;;;;;;;;;;4967731;28;20258;-62
2022/02/14 14:56:21;;;;;;;1.73;0.40;;;;;;;;;;4959589;28;20033;-61
2022/02/14 14:58:52;;;;;;;2.97;0.60;;;;;;;;;;4985394;28;20041;-61
2022/02/14 15:01:17;;;;;;;2.35;0.30;;;;;;;;;;4970464;28;20034;-62